sensor_id;sensor_type;location;lat;lon;timestamp;temperature;humidity
26164;DHT22;13914;48.178;11.716;2023-12-04T00:00:10;-4.60;14.30
26164;DHT22;13914;48.178;11.716;2023-12-04T00:02:36;-4.60;14.20
26164;DHT22;13914;48.178;11.716;2023-12-04T00:05:04;-4.60;14.20
26164;DHT22;13914;48.178;11.716;2023-12-04T00:07:30;-4.60;14.30
26164;DHT22;13914;48.178;11.716;2023-12-04T00:09:56;-4.60;14.20
26164;DHT22;13914;48.178;11.716;2023-12-04T00:12:22;-4.60;14.20
26164;DHT22;13914;48.178;11.716;2023-12-04T00:14:47;-4.60;14.20
26164;DHT22;13914;48.178;11.716;2023-12-04T00:17:13;-4.70;14.10
26164;DHT22;13914;48.178;11.716;2023-12-04T00:19:38;-4.70;14.10
26164;DHT22;13914;48.178;11.716;2023-12-04T00:22:04;-4.70;14.00
26164;DHT22;13914;48.178;11.716;2023-12-04T00:24:30;-4.70;14.00
26164;DHT22;13914;48.178;11.716;2023-12-04T00:26:55;-4.70;14.00
26164;DHT22;13914;48.178;11.716;2023-12-04T00:29:21;-4.70;14.00
26164;DHT22;13914;48.178;11.716;2023-12-04T00:31:47;-4.70;14.00
26164;DHT22;13914;48.178;11.716;2023-12-04T00:34:12;-4.70;14.00
26164;DHT22;13914;48.178;11.716;2023-12-04T00:36:38;-4.80;13.90
26164;DHT22;13914;48.178;11.716;2023-12-04T00:39:04;-4.80;13.90
26164;DHT22;13914;48.178;11.716;2023-12-04T00:41:29;-4.80;13.90
26164;DHT22;13914;48.178;11.716;2023-12-04T00:43:55;-4.80;13.90
26164;DHT22;13914;48.178;11.716;2023-12-04T00:46:21;-4.90;13.80
26164;DHT22;13914;48.178;11.716;2023-12-04T00:48:46;-4.90;13.80
26164;DHT22;13914;48.178;11.716;2023-12-04T00:51:12;-4.90;13.80
26164;DHT22;13914;48.178;11.716;2023-12-04T00:53:38;-4.90;13.80
26164;DHT22;13914;48.178;11.716;2023-12-04T00:56:04;-4.90;13.80
26164;DHT22;13914;48.178;11.716;2023-12-04T00:58:31;-4.90;13.80
26164;DHT22;13914;48.178;11.716;2023-12-04T01:00:57;-5.00;13.70
26164;DHT22;13914;48.178;11.716;2023-12-04T01:03:22;-5.00;13.80
26164;DHT22;13914;48.178;11.716;2023-12-04T01:05:48;-5.00;13.70
26164;DHT22;13914;48.178;11.716;2023-12-04T01:08:14;-5.10;13.60
26164;DHT22;13914;48.178;11.716;2023-12-04T01:10:39;-5.10;13.60
26164;DHT22;13914;48.178;11.716;2023-12-04T01:13:05;-5.10;13.60
26164;DHT22;13914;48.178;11.716;2023-12-04T01:15:31;-5.10;13.60
26164;DHT22;13914;48.178;11.716;2023-12-04T01:17:56;-5.20;13.50
26164;DHT22;13914;48.178;11.716;2023-12-04T01:20:22;-5.20;13.50
26164;DHT22;13914;48.178;11.716;2023-12-04T01:22:48;-5.20;13.50
26164;DHT22;13914;48.178;11.716;2023-12-04T01:25:14;-5.20;13.50
26164;DHT22;13914;48.178;11.716;2023-12-04T01:27:40;-5.20;13.50
26164;DHT22;13914;48.178;11.716;2023-12-04T01:30:05;-5.30;13.50
26164;DHT22;13914;48.178;11.716;2023-12-04T01:32:34;-5.30;13.50
26164;DHT22;13914;48.178;11.716;2023-12-04T01:35:00;-5.30;13.50
26164;DHT22;13914;48.178;11.716;2023-12-04T01:37:27;-5.30;13.50
26164;DHT22;13914;48.178;11.716;2023-12-04T01:39:52;-5.30;13.50
26164;DHT22;13914;48.178;11.716;2023-12-04T01:42:18;-5.40;13.40
26164;DHT22;13914;48.178;11.716;2023-12-04T01:44:44;-5.40;13.40
26164;DHT22;13914;48.178;11.716;2023-12-04T01:47:10;-5.40;13.30
26164;DHT22;13914;48.178;11.716;2023-12-04T01:49:36;-5.50;13.30
26164;DHT22;13914;48.178;11.716;2023-12-04T01:52:01;-5.50;13.30
26164;DHT22;13914;48.178;11.716;2023-12-04T01:54:27;-5.50;13.30
26164;DHT22;13914;48.178;11.716;2023-12-04T01:56:54;-5.60;13.30
26164;DHT22;13914;48.178;11.716;2023-12-04T01:59:19;-5.60;13.30
26164;DHT22;13914;48.178;11.716;2023-12-04T02:01:45;-5.60;13.20
26164;DHT22;13914;48.178;11.716;2023-12-04T02:04:11;-5.60;13.10
26164;DHT22;13914;48.178;11.716;2023-12-04T02:06:37;-5.70;13.10
26164;DHT22;13914;48.178;11.716;2023-12-04T02:09:02;-5.70;13.10
26164;DHT22;13914;48.178;11.716;2023-12-04T02:11:28;-5.80;13.10
26164;DHT22;13914;48.178;11.716;2023-12-04T02:13:54;-5.80;13.10
26164;DHT22;13914;48.178;11.716;2023-12-04T02:16:20;-5.80;13.10
26164;DHT22;13914;48.178;11.716;2023-12-04T02:18:47;-5.80;13.10
26164;DHT22;13914;48.178;11.716;2023-12-04T02:21:13;-5.80;13.20
26164;DHT22;13914;48.178;11.716;2023-12-04T02:23:39;-5.80;13.20
26164;DHT22;13914;48.178;11.716;2023-12-04T02:26:14;-5.90;13.10
26164;DHT22;13914;48.178;11.716;2023-12-04T02:28:42;-5.90;13.10
26164;DHT22;13914;48.178;11.716;2023-12-04T02:31:09;-5.90;13.10
26164;DHT22;13914;48.178;11.716;2023-12-04T02:33:36;-5.90;13.10
26164;DHT22;13914;48.178;11.716;2023-12-04T02:36:03;-6.00;13.10
26164;DHT22;13914;48.178;11.716;2023-12-04T02:38:30;-6.00;13.10
26164;DHT22;13914;48.178;11.716;2023-12-04T02:40:56;-6.00;13.10
26164;DHT22;13914;48.178;11.716;2023-12-04T02:43:22;-6.10;13.00
26164;DHT22;13914;48.178;11.716;2023-12-04T02:45:47;-6.10;13.00
26164;DHT22;13914;48.178;11.716;2023-12-04T02:48:13;-6.10;13.00
26164;DHT22;13914;48.178;11.716;2023-12-04T02:50:39;-6.10;13.00
26164;DHT22;13914;48.178;11.716;2023-12-04T02:53:04;-6.20;12.90
26164;DHT22;13914;48.178;11.716;2023-12-04T02:55:30;-6.20;12.90
26164;DHT22;13914;48.178;11.716;2023-12-04T02:57:56;-6.20;12.90
26164;DHT22;13914;48.178;11.716;2023-12-04T03:00:21;-6.30;12.90
26164;DHT22;13914;48.178;11.716;2023-12-04T03:02:47;-6.30;12.90
26164;DHT22;13914;48.178;11.716;2023-12-04T03:05:13;-6.30;12.90
26164;DHT22;13914;48.178;11.716;2023-12-04T03:07:38;-6.40;12.80
26164;DHT22;13914;48.178;11.716;2023-12-04T03:10:04;-6.40;12.90
26164;DHT22;13914;48.178;11.716;2023-12-04T03:12:30;-6.40;12.90
26164;DHT22;13914;48.178;11.716;2023-12-04T03:14:56;-6.40;12.90
26164;DHT22;13914;48.178;11.716;2023-12-04T03:17:21;-6.40;12.90
26164;DHT22;13914;48.178;11.716;2023-12-04T03:19:47;-6.40;12.90
26164;DHT22;13914;48.178;11.716;2023-12-04T03:22:13;-6.50;13.50
26164;DHT22;13914;48.178;11.716;2023-12-04T03:24:38;-6.50;12.90
26164;DHT22;13914;48.178;11.716;2023-12-04T03:27:04;-6.50;12.90
26164;DHT22;13914;48.178;11.716;2023-12-04T03:29:30;-6.50;12.90
26164;DHT22;13914;48.178;11.716;2023-12-04T03:31:55;-6.60;12.90
26164;DHT22;13914;48.178;11.716;2023-12-04T03:34:21;-6.60;12.90
26164;DHT22;13914;48.178;11.716;2023-12-04T03:36:47;-6.60;12.90
26164;DHT22;13914;48.178;11.716;2023-12-04T03:39:12;-6.70;12.90
26164;DHT22;13914;48.178;11.716;2023-12-04T03:41:38;-6.70;12.80
26164;DHT22;13914;48.178;11.716;2023-12-04T03:44:04;-6.70;12.90
26164;DHT22;13914;48.178;11.716;2023-12-04T03:46:29;-6.70;12.90
26164;DHT22;13914;48.178;11.716;2023-12-04T03:48:55;-6.70;12.90
26164;DHT22;13914;48.178;11.716;2023-12-04T03:51:20;-6.80;12.90
26164;DHT22;13914;48.178;11.716;2023-12-04T03:53:46;-6.80;12.90
26164;DHT22;13914;48.178;11.716;2023-12-04T03:56:12;-6.80;12.90
26164;DHT22;13914;48.178;11.716;2023-12-04T03:58:37;-6.80;12.90
26164;DHT22;13914;48.178;11.716;2023-12-04T04:01:04;-6.80;12.90
26164;DHT22;13914;48.178;11.716;2023-12-04T04:03:29;-6.90;12.90
26164;DHT22;13914;48.178;11.716;2023-12-04T04:05:55;-6.90;12.90
26164;DHT22;13914;48.178;11.716;2023-12-04T04:08:21;-6.90;13.00
26164;DHT22;13914;48.178;11.716;2023-12-04T04:10:46;-6.90;13.00
26164;DHT22;13914;48.178;11.716;2023-12-04T04:13:12;-6.90;13.00
26164;DHT22;13914;48.178;11.716;2023-12-04T04:15:38;-6.90;13.00
26164;DHT22;13914;48.178;11.716;2023-12-04T04:18:03;-7.00;13.00
26164;DHT22;13914;48.178;11.716;2023-12-04T04:20:29;-7.00;13.10
26164;DHT22;13914;48.178;11.716;2023-12-04T04:22:55;-7.00;13.00
26164;DHT22;13914;48.178;11.716;2023-12-04T04:25:20;-7.00;13.10
26164;DHT22;13914;48.178;11.716;2023-12-04T04:27:48;-7.10;13.10
26164;DHT22;13914;48.178;11.716;2023-12-04T04:30:14;-7.10;13.00
26164;DHT22;13914;48.178;11.716;2023-12-04T04:32:41;-7.10;13.00
26164;DHT22;13914;48.178;11.716;2023-12-04T04:35:07;-7.00;13.10
26164;DHT22;13914;48.178;11.716;2023-12-04T04:37:33;-7.10;13.10
26164;DHT22;13914;48.178;11.716;2023-12-04T04:39:58;-7.10;13.10
26164;DHT22;13914;48.178;11.716;2023-12-04T04:42:24;-7.20;13.10
26164;DHT22;13914;48.178;11.716;2023-12-04T04:44:50;-7.20;13.10
26164;DHT22;13914;48.178;11.716;2023-12-04T04:47:15;-7.20;13.10
26164;DHT22;13914;48.178;11.716;2023-12-04T04:49:41;-7.20;13.20
26164;DHT22;13914;48.178;11.716;2023-12-04T04:52:07;-7.20;13.20
26164;DHT22;13914;48.178;11.716;2023-12-04T04:54:33;-7.20;13.30
26164;DHT22;13914;48.178;11.716;2023-12-04T04:56:59;-7.20;13.30
26164;DHT22;13914;48.178;11.716;2023-12-04T04:59:24;-7.20;13.30
26164;DHT22;13914;48.178;11.716;2023-12-04T05:01:50;-7.30;13.30
26164;DHT22;13914;48.178;11.716;2023-12-04T05:04:16;-7.30;13.30
26164;DHT22;13914;48.178;11.716;2023-12-04T05:06:42;-7.30;13.30
26164;DHT22;13914;48.178;11.716;2023-12-04T05:09:07;-7.30;13.40
26164;DHT22;13914;48.178;11.716;2023-12-04T05:11:33;-7.30;13.30
26164;DHT22;13914;48.178;11.716;2023-12-04T05:13:59;-7.30;13.30
26164;DHT22;13914;48.178;11.716;2023-12-04T05:16:24;-7.40;13.30
26164;DHT22;13914;48.178;11.716;2023-12-04T05:18:50;-7.40;13.30
26164;DHT22;13914;48.178;11.716;2023-12-04T05:21:16;-7.40;13.30
26164;DHT22;13914;48.178;11.716;2023-12-04T05:23:41;-7.40;13.40
26164;DHT22;13914;48.178;11.716;2023-12-04T05:26:07;-7.40;13.40
26164;DHT22;13914;48.178;11.716;2023-12-04T05:28:33;-7.40;13.40
26164;DHT22;13914;48.178;11.716;2023-12-04T05:30:59;-7.40;13.40
26164;DHT22;13914;48.178;11.716;2023-12-04T05:33:25;-7.40;13.40
26164;DHT22;13914;48.178;11.716;2023-12-04T05:35:51;-7.40;13.40
26164;DHT22;13914;48.178;11.716;2023-12-04T05:38:17;-7.40;13.50
26164;DHT22;13914;48.178;11.716;2023-12-04T05:40:43;-7.40;13.50
26164;DHT22;13914;48.178;11.716;2023-12-04T05:43:08;-7.50;13.50
26164;DHT22;13914;48.178;11.716;2023-12-04T05:45:34;-7.50;13.60
26164;DHT22;13914;48.178;11.716;2023-12-04T05:48:00;-7.40;13.70
26164;DHT22;13914;48.178;11.716;2023-12-04T05:50:25;-7.50;13.70
26164;DHT22;13914;48.178;11.716;2023-12-04T05:52:51;-7.50;13.70
26164;DHT22;13914;48.178;11.716;2023-12-04T05:55:17;-7.50;13.70
26164;DHT22;13914;48.178;11.716;2023-12-04T05:57:43;-7.50;13.70
26164;DHT22;13914;48.178;11.716;2023-12-04T06:00:09;-7.50;13.70
26164;DHT22;13914;48.178;11.716;2023-12-04T06:02:38;-7.50;13.70
26164;DHT22;13914;48.178;11.716;2023-12-04T06:05:05;-7.50;13.70
26164;DHT22;13914;48.178;11.716;2023-12-04T06:07:31;-7.50;13.70
26164;DHT22;13914;48.178;11.716;2023-12-04T06:09:57;-7.50;13.70
26164;DHT22;13914;48.178;11.716;2023-12-04T06:12:22;-7.50;13.70
26164;DHT22;13914;48.178;11.716;2023-12-04T06:14:48;-7.50;13.70
26164;DHT22;13914;48.178;11.716;2023-12-04T06:17:14;-7.50;13.80
26164;DHT22;13914;48.178;11.716;2023-12-04T06:19:39;-7.50;13.80
26164;DHT22;13914;48.178;11.716;2023-12-04T06:22:05;-7.50;13.80
26164;DHT22;13914;48.178;11.716;2023-12-04T06:24:31;-7.50;13.90
26164;DHT22;13914;48.178;11.716;2023-12-04T06:26:57;-7.60;13.80
26164;DHT22;13914;48.178;11.716;2023-12-04T06:29:23;-7.50;13.90
26164;DHT22;13914;48.178;11.716;2023-12-04T06:31:49;-7.50;13.90
26164;DHT22;13914;48.178;11.716;2023-12-04T06:34:15;-7.50;13.90
26164;DHT22;13914;48.178;11.716;2023-12-04T06:36:41;-7.50;13.90
26164;DHT22;13914;48.178;11.716;2023-12-04T06:39:09;-7.50;14.00
26164;DHT22;13914;48.178;11.716;2023-12-04T06:41:36;-7.60;14.00
26164;DHT22;13914;48.178;11.716;2023-12-04T06:44:01;-7.60;14.00
26164;DHT22;13914;48.178;11.716;2023-12-04T06:46:28;-7.50;14.10
26164;DHT22;13914;48.178;11.716;2023-12-04T06:48:54;-7.60;14.00
26164;DHT22;13914;48.178;11.716;2023-12-04T06:51:22;-7.60;14.10
26164;DHT22;13914;48.178;11.716;2023-12-04T06:53:48;-7.60;14.20
26164;DHT22;13914;48.178;11.716;2023-12-04T06:56:14;-7.60;14.20
26164;DHT22;13914;48.178;11.716;2023-12-04T06:58:40;-7.50;14.20
26164;DHT22;13914;48.178;11.716;2023-12-04T07:01:06;-7.50;14.20
26164;DHT22;13914;48.178;11.716;2023-12-04T07:03:31;-7.50;14.30
26164;DHT22;13914;48.178;11.716;2023-12-04T07:05:57;-7.50;14.30
26164;DHT22;13914;48.178;11.716;2023-12-04T07:08:23;-7.50;14.30
26164;DHT22;13914;48.178;11.716;2023-12-04T07:10:48;-7.50;14.30
26164;DHT22;13914;48.178;11.716;2023-12-04T07:13:14;-7.50;14.20
26164;DHT22;13914;48.178;11.716;2023-12-04T07:15:40;-7.50;14.30
26164;DHT22;13914;48.178;11.716;2023-12-04T07:18:05;-7.50;14.30
26164;DHT22;13914;48.178;11.716;2023-12-04T07:20:31;-7.50;14.30
26164;DHT22;13914;48.178;11.716;2023-12-04T07:22:57;-7.50;14.20
26164;DHT22;13914;48.178;11.716;2023-12-04T07:25:23;-7.50;14.20
26164;DHT22;13914;48.178;11.716;2023-12-04T07:27:49;-7.40;14.30
26164;DHT22;13914;48.178;11.716;2023-12-04T07:30:15;-7.50;14.20
26164;DHT22;13914;48.178;11.716;2023-12-04T07:32:41;-7.40;14.30
26164;DHT22;13914;48.178;11.716;2023-12-04T07:35:07;-7.40;14.30
26164;DHT22;13914;48.178;11.716;2023-12-04T07:37:32;-7.40;14.30
26164;DHT22;13914;48.178;11.716;2023-12-04T07:39:58;-7.40;14.30
26164;DHT22;13914;48.178;11.716;2023-12-04T07:42:24;-7.40;14.30
26164;DHT22;13914;48.178;11.716;2023-12-04T07:44:50;-7.40;14.30
26164;DHT22;13914;48.178;11.716;2023-12-04T07:47:15;-7.40;14.30
26164;DHT22;13914;48.178;11.716;2023-12-04T07:49:41;-7.40;14.40
26164;DHT22;13914;48.178;11.716;2023-12-04T07:52:09;-7.40;14.40
26164;DHT22;13914;48.178;11.716;2023-12-04T07:54:36;-7.30;14.40
26164;DHT22;13914;48.178;11.716;2023-12-04T07:57:02;-7.30;14.40
26164;DHT22;13914;48.178;11.716;2023-12-04T07:59:28;-7.30;14.50
26164;DHT22;13914;48.178;11.716;2023-12-04T08:01:53;-7.30;14.40
26164;DHT22;13914;48.178;11.716;2023-12-04T08:04:19;-7.30;14.50
26164;DHT22;13914;48.178;11.716;2023-12-04T08:06:45;-7.30;14.50
26164;DHT22;13914;48.178;11.716;2023-12-04T08:09:11;-7.30;14.40
26164;DHT22;13914;48.178;11.716;2023-12-04T08:11:37;-7.20;14.50
26164;DHT22;13914;48.178;11.716;2023-12-04T08:14:03;-7.20;14.50
26164;DHT22;13914;48.178;11.716;2023-12-04T08:16:29;-7.10;14.60
26164;DHT22;13914;48.178;11.716;2023-12-04T08:18:55;-7.20;14.50
26164;DHT22;13914;48.178;11.716;2023-12-04T08:21:21;-7.10;14.60
26164;DHT22;13914;48.178;11.716;2023-12-04T08:23:46;-7.10;14.60
26164;DHT22;13914;48.178;11.716;2023-12-04T08:26:12;-7.10;14.60
26164;DHT22;13914;48.178;11.716;2023-12-04T08:28:38;-7.10;14.70
26164;DHT22;13914;48.178;11.716;2023-12-04T08:31:07;-7.10;14.70
26164;DHT22;13914;48.178;11.716;2023-12-04T08:33:33;-7.00;14.80
26164;DHT22;13914;48.178;11.716;2023-12-04T08:36:00;-7.00;14.80
26164;DHT22;13914;48.178;11.716;2023-12-04T08:38:26;-7.00;15.00
26164;DHT22;13914;48.178;11.716;2023-12-04T08:40:52;-7.00;14.90
26164;DHT22;13914;48.178;11.716;2023-12-04T08:43:18;-6.90;15.00
26164;DHT22;13914;48.178;11.716;2023-12-04T08:45:45;-6.90;15.00
26164;DHT22;13914;48.178;11.716;2023-12-04T08:48:11;-6.90;15.10
26164;DHT22;13914;48.178;11.716;2023-12-04T08:50:36;-6.80;15.10
26164;DHT22;13914;48.178;11.716;2023-12-04T08:53:03;-6.80;15.10
26164;DHT22;13914;48.178;11.716;2023-12-04T08:55:29;-6.80;15.20
26164;DHT22;13914;48.178;11.716;2023-12-04T08:57:55;-6.80;15.20
26164;DHT22;13914;48.178;11.716;2023-12-04T09:00:22;-6.80;15.20
26164;DHT22;13914;48.178;11.716;2023-12-04T09:02:48;-6.70;15.30
26164;DHT22;13914;48.178;11.716;2023-12-04T09:05:14;-6.70;15.30
26164;DHT22;13914;48.178;11.716;2023-12-04T09:07:42;-6.70;15.30
26164;DHT22;13914;48.178;11.716;2023-12-04T09:10:08;-6.60;15.40
26164;DHT22;13914;48.178;11.716;2023-12-04T09:12:34;-6.60;15.50
26164;DHT22;13914;48.178;11.716;2023-12-04T09:15:02;-6.60;15.50
26164;DHT22;13914;48.178;11.716;2023-12-04T09:17:28;-6.50;15.50
26164;DHT22;13914;48.178;11.716;2023-12-04T09:19:54;-6.50;15.50
26164;DHT22;13914;48.178;11.716;2023-12-04T09:22:19;-6.40;15.60
26164;DHT22;13914;48.178;11.716;2023-12-04T09:24:45;-6.40;15.50
26164;DHT22;13914;48.178;11.716;2023-12-04T09:27:11;-6.40;15.60
26164;DHT22;13914;48.178;11.716;2023-12-04T09:29:36;-6.30;15.60
26164;DHT22;13914;48.178;11.716;2023-12-04T09:32:03;-6.30;15.60
26164;DHT22;13914;48.178;11.716;2023-12-04T09:34:29;-6.20;15.60
26164;DHT22;13914;48.178;11.716;2023-12-04T09:36:54;-6.20;15.60
26164;DHT22;13914;48.178;11.716;2023-12-04T09:39:20;-6.10;15.70
26164;DHT22;13914;48.178;11.716;2023-12-04T09:41:46;-6.10;15.70
26164;DHT22;13914;48.178;11.716;2023-12-04T09:44:12;-6.10;15.80
26164;DHT22;13914;48.178;11.716;2023-12-04T09:46:38;-6.00;15.90
26164;DHT22;13914;48.178;11.716;2023-12-04T09:49:04;-6.00;15.90
26164;DHT22;13914;48.178;11.716;2023-12-04T09:51:30;-5.90;16.00
26164;DHT22;13914;48.178;11.716;2023-12-04T09:53:56;-5.90;16.00
26164;DHT22;13914;48.178;11.716;2023-12-04T09:56:22;-5.80;16.10
26164;DHT22;13914;48.178;11.716;2023-12-04T09:58:50;-5.80;16.10
26164;DHT22;13914;48.178;11.716;2023-12-04T10:01:18;-5.80;16.10
26164;DHT22;13914;48.178;11.716;2023-12-04T10:03:44;-5.70;16.10
26164;DHT22;13914;48.178;11.716;2023-12-04T10:06:11;-5.70;16.20
26164;DHT22;13914;48.178;11.716;2023-12-04T10:08:42;-5.60;16.10
26164;DHT22;13914;48.178;11.716;2023-12-04T10:11:10;-5.60;16.10
26164;DHT22;13914;48.178;11.716;2023-12-04T10:13:36;-5.60;16.20
26164;DHT22;13914;48.178;11.716;2023-12-04T10:16:01;-5.50;16.10
26164;DHT22;13914;48.178;11.716;2023-12-04T10:18:29;-5.40;16.10
26164;DHT22;13914;48.178;11.716;2023-12-04T10:20:56;-5.50;16.00
26164;DHT22;13914;48.178;11.716;2023-12-04T10:23:22;-5.40;16.00
26164;DHT22;13914;48.178;11.716;2023-12-04T10:25:49;-5.40;16.00
26164;DHT22;13914;48.178;11.716;2023-12-04T10:28:16;-5.30;15.90
26164;DHT22;13914;48.178;11.716;2023-12-04T10:30:42;-5.30;15.90
26164;DHT22;13914;48.178;11.716;2023-12-04T10:33:08;-5.30;16.00
26164;DHT22;13914;48.178;11.716;2023-12-04T10:35:35;-5.20;16.00
26164;DHT22;13914;48.178;11.716;2023-12-04T10:38:01;-5.20;16.00
26164;DHT22;13914;48.178;11.716;2023-12-04T10:40:30;-5.10;16.10
26164;DHT22;13914;48.178;11.716;2023-12-04T10:43:12;-5.10;16.10
26164;DHT22;13914;48.178;11.716;2023-12-04T10:45:38;-5.00;16.00
26164;DHT22;13914;48.178;11.716;2023-12-04T10:48:07;-5.00;16.10
26164;DHT22;13914;48.178;11.716;2023-12-04T10:50:34;-5.00;16.20
26164;DHT22;13914;48.178;11.716;2023-12-04T10:53:01;-4.90;16.10
26164;DHT22;13914;48.178;11.716;2023-12-04T10:55:30;-4.90;16.10
26164;DHT22;13914;48.178;11.716;2023-12-04T10:57:55;-4.80;16.10
26164;DHT22;13914;48.178;11.716;2023-12-04T11:00:22;-4.80;16.00
26164;DHT22;13914;48.178;11.716;2023-12-04T11:02:49;-4.70;16.10
26164;DHT22;13914;48.178;11.716;2023-12-04T11:05:20;-4.70;16.20
26164;DHT22;13914;48.178;11.716;2023-12-04T11:07:50;-4.70;16.10
26164;DHT22;13914;48.178;11.716;2023-12-04T11:10:21;-4.70;16.00
26164;DHT22;13914;48.178;11.716;2023-12-04T11:12:51;-4.60;16.00
26164;DHT22;13914;48.178;11.716;2023-12-04T11:15:21;-4.60;16.00
26164;DHT22;13914;48.178;11.716;2023-12-04T11:17:49;-4.50;16.00
26164;DHT22;13914;48.178;11.716;2023-12-04T11:20:17;-4.50;16.00
26164;DHT22;13914;48.178;11.716;2023-12-04T11:22:45;-4.50;15.90
26164;DHT22;13914;48.178;11.716;2023-12-04T11:25:12;-4.40;15.90
26164;DHT22;13914;48.178;11.716;2023-12-04T11:27:38;-4.30;15.80
26164;DHT22;13914;48.178;11.716;2023-12-04T11:30:04;-4.30;15.80
26164;DHT22;13914;48.178;11.716;2023-12-04T11:32:31;-4.30;15.80
26164;DHT22;13914;48.178;11.716;2023-12-04T11:34:59;-4.30;15.80
26164;DHT22;13914;48.178;11.716;2023-12-04T11:37:25;-4.20;15.80
26164;DHT22;13914;48.178;11.716;2023-12-04T11:39:51;-4.20;15.70
26164;DHT22;13914;48.178;11.716;2023-12-04T11:42:18;-4.10;15.80
26164;DHT22;13914;48.178;11.716;2023-12-04T11:44:47;-4.10;15.80
26164;DHT22;13914;48.178;11.716;2023-12-04T11:47:13;-4.10;15.70
26164;DHT22;13914;48.178;11.716;2023-12-04T11:49:39;-4.10;15.70
26164;DHT22;13914;48.178;11.716;2023-12-04T11:52:05;-4.00;15.70
26164;DHT22;13914;48.178;11.716;2023-12-04T11:57:24;-3.90;15.70
26164;DHT22;13914;48.178;11.716;2023-12-04T12:00:03;-3.90;15.70
26164;DHT22;13914;48.178;11.716;2023-12-04T12:05:17;-3.90;15.60
26164;DHT22;13914;48.178;11.716;2023-12-04T12:07:45;-3.80;15.60
26164;DHT22;13914;48.178;11.716;2023-12-04T12:10:11;-3.80;15.60
26164;DHT22;13914;48.178;11.716;2023-12-04T12:12:38;-3.80;15.60
26164;DHT22;13914;48.178;11.716;2023-12-04T12:15:05;-3.80;15.50
26164;DHT22;13914;48.178;11.716;2023-12-04T12:17:34;-3.80;15.50
26164;DHT22;13914;48.178;11.716;2023-12-04T12:20:00;-3.70;15.50
26164;DHT22;13914;48.178;11.716;2023-12-04T12:22:25;-3.70;15.40
26164;DHT22;13914;48.178;11.716;2023-12-04T12:24:51;-3.70;15.30
26164;DHT22;13914;48.178;11.716;2023-12-04T12:27:17;-3.60;15.20
26164;DHT22;13914;48.178;11.716;2023-12-04T12:29:42;-3.70;15.10
26164;DHT22;13914;48.178;11.716;2023-12-04T12:32:08;-3.60;15.20
26164;DHT22;13914;48.178;11.716;2023-12-04T12:34:34;-3.60;15.10
26164;DHT22;13914;48.178;11.716;2023-12-04T12:37:02;-3.60;15.10
26164;DHT22;13914;48.178;11.716;2023-12-04T12:39:29;-3.60;15.10
26164;DHT22;13914;48.178;11.716;2023-12-04T12:41:55;-3.50;15.20
26164;DHT22;13914;48.178;11.716;2023-12-04T12:44:21;-3.50;15.20
26164;DHT22;13914;48.178;11.716;2023-12-04T12:46:47;-3.50;15.10
26164;DHT22;13914;48.178;11.716;2023-12-04T12:49:17;-3.50;15.10
26164;DHT22;13914;48.178;11.716;2023-12-04T12:51:44;-3.50;15.20
26164;DHT22;13914;48.178;11.716;2023-12-04T12:54:10;-3.50;15.30
26164;DHT22;13914;48.178;11.716;2023-12-04T12:56:36;-3.50;15.10
26164;DHT22;13914;48.178;11.716;2023-12-04T12:59:02;-3.40;15.00
26164;DHT22;13914;48.178;11.716;2023-12-04T13:01:31;-3.40;15.10
26164;DHT22;13914;48.178;11.716;2023-12-04T13:03:57;-3.40;15.10
26164;DHT22;13914;48.178;11.716;2023-12-04T13:06:23;-3.30;15.20
26164;DHT22;13914;48.178;11.716;2023-12-04T13:08:48;-3.30;15.20
26164;DHT22;13914;48.178;11.716;2023-12-04T13:11:14;-3.30;15.20
26164;DHT22;13914;48.178;11.716;2023-12-04T13:13:40;-3.30;15.20
26164;DHT22;13914;48.178;11.716;2023-12-04T13:16:06;-3.30;15.20
26164;DHT22;13914;48.178;11.716;2023-12-04T13:18:31;-3.30;15.20
26164;DHT22;13914;48.178;11.716;2023-12-04T13:21:00;-3.20;15.30
26164;DHT22;13914;48.178;11.716;2023-12-04T13:23:26;-3.20;15.40
26164;DHT22;13914;48.178;11.716;2023-12-04T13:25:52;-3.20;15.40
26164;DHT22;13914;48.178;11.716;2023-12-04T13:28:20;-3.20;15.40
26164;DHT22;13914;48.178;11.716;2023-12-04T13:30:46;-3.10;15.40
26164;DHT22;13914;48.178;11.716;2023-12-04T13:33:11;-3.10;15.30
26164;DHT22;13914;48.178;11.716;2023-12-04T13:35:37;-3.10;15.30
26164;DHT22;13914;48.178;11.716;2023-12-04T13:38:03;-3.10;15.20
26164;DHT22;13914;48.178;11.716;2023-12-04T13:40:32;-3.10;15.10
26164;DHT22;13914;48.178;11.716;2023-12-04T13:43:00;-3.10;15.10
26164;DHT22;13914;48.178;11.716;2023-12-04T13:45:44;-3.00;15.10
26164;DHT22;13914;48.178;11.716;2023-12-04T13:48:09;-3.00;15.00
26164;DHT22;13914;48.178;11.716;2023-12-04T13:50:35;-3.00;14.90
26164;DHT22;13914;48.178;11.716;2023-12-04T13:53:01;-3.00;14.90
26164;DHT22;13914;48.178;11.716;2023-12-04T13:55:27;-3.00;14.80
26164;DHT22;13914;48.178;11.716;2023-12-04T13:58:22;-3.00;14.70
26164;DHT22;13914;48.178;11.716;2023-12-04T14:01:03;-3.00;14.70
26164;DHT22;13914;48.178;11.716;2023-12-04T14:03:42;-3.00;14.70
26164;DHT22;13914;48.178;11.716;2023-12-04T14:06:09;-3.00;14.60
26164;DHT22;13914;48.178;11.716;2023-12-04T14:08:35;-3.00;14.60
26164;DHT22;13914;48.178;11.716;2023-12-04T14:11:03;-3.00;14.60
26164;DHT22;13914;48.178;11.716;2023-12-04T14:13:31;-3.00;14.70
26164;DHT22;13914;48.178;11.716;2023-12-04T14:15:57;-3.00;14.60
26164;DHT22;13914;48.178;11.716;2023-12-04T14:18:23;-3.00;14.60
26164;DHT22;13914;48.178;11.716;2023-12-04T14:20:49;-3.00;14.50
26164;DHT22;13914;48.178;11.716;2023-12-04T14:23:14;-2.90;14.60
26164;DHT22;13914;48.178;11.716;2023-12-04T14:25:40;-2.90;14.60
26164;DHT22;13914;48.178;11.716;2023-12-04T14:28:06;-2.90;14.60
26164;DHT22;13914;48.178;11.716;2023-12-04T14:30:32;-3.00;14.60
26164;DHT22;13914;48.178;11.716;2023-12-04T14:32:58;-2.90;14.60
26164;DHT22;13914;48.178;11.716;2023-12-04T14:35:23;-2.90;14.60
26164;DHT22;13914;48.178;11.716;2023-12-04T14:37:49;-2.90;14.60
26164;DHT22;13914;48.178;11.716;2023-12-04T14:40:15;-2.90;14.50
26164;DHT22;13914;48.178;11.716;2023-12-04T14:42:43;-2.90;15.10
26164;DHT22;13914;48.178;11.716;2023-12-04T14:45:09;-2.90;14.50
26164;DHT22;13914;48.178;11.716;2023-12-04T14:47:34;-2.90;14.50
26164;DHT22;13914;48.178;11.716;2023-12-04T14:50:02;-2.90;14.50
26164;DHT22;13914;48.178;11.716;2023-12-04T14:52:28;-2.90;14.40
26164;DHT22;13914;48.178;11.716;2023-12-04T14:54:55;-2.90;14.40
26164;DHT22;13914;48.178;11.716;2023-12-04T14:57:53;-3.00;14.30
26164;DHT22;13914;48.178;11.716;2023-12-04T15:00:37;-2.90;14.30
26164;DHT22;13914;48.178;11.716;2023-12-04T15:03:14;-2.90;14.30
26164;DHT22;13914;48.178;11.716;2023-12-04T15:05:59;-3.00;14.30
26164;DHT22;13914;48.178;11.716;2023-12-04T15:08:39;-2.90;14.30
26164;DHT22;13914;48.178;11.716;2023-12-04T15:11:34;-3.00;14.20
26164;DHT22;13914;48.178;11.716;2023-12-04T15:14:19;-3.00;14.20
26164;DHT22;13914;48.178;11.716;2023-12-04T15:17:03;-3.00;14.20